Time;durP1;ratioP1;P1;durP2;ratioP2;P2;SDS_P1;SDS_P2;PMS_P1;PMS_P2;Temp;Humidity;BMP_temperature;BMP_pressure;BME280_temperature;BME280_humidity;BME280_pressure;Samples;Min_cycle;Max_cycle;Signal;HPM_P1;HPM_P2
2021/06/18 00:01:21;;;;;;;10.15;9.23;;;21.20;91.10;;;;;;5051390;28;20413;-72
2021/06/18 00:03:48;;;;;;;10.43;9.45;;;21.00;92.00;;;;;;5052975;28;20477;-72
2021/06/18 00:06:14;;;;;;;10.57;9.52;;;20.90;93.60;;;;;;5054690;28;20474;-72
2021/06/18 00:08:42;;;;;;;10.75;9.65;;;20.90;94.80;;;;;;5054560;28;20073;-73
2021/06/18 00:11:09;;;;;;;9.88;8.98;;;20.80;96.60;;;;;;5054593;28;20183;-72
2021/06/18 00:13:36;;;;;;;11.55;10.55;;;20.70;98.00;;;;;;5054981;28;20087;-73
2021/06/18 00:16:03;;;;;;;11.10;10.02;;;20.60;99.90;;;;;;5054993;28;20046;-73
2021/06/18 00:18:29;;;;;;;10.05;9.25;;;20.70;99.90;;;;;;5054971;28;20107;-72
2021/06/18 00:20:56;;;;;;;10.93;10.10;;;20.70;99.90;;;;;;5054607;28;20080;-73
2021/06/18 00:23:22;;;;;;;10.77;9.73;;;20.60;99.90;;;;;;5054446;28;20049;-73
2021/06/18 00:25:50;;;;;;;10.45;9.55;;;20.50;99.90;;;;;;5054016;28;20045;-73
2021/06/18 00:28:17;;;;;;;10.88;9.88;;;20.60;99.90;;;;;;5053857;28;20088;-73
2021/06/18 00:30:44;;;;;;;10.35;9.52;;;20.60;99.90;;;;;;5054590;28;20079;-73
2021/06/18 00:33:11;;;;;;;12.40;10.93;;;20.50;99.90;;;;;;5054668;28;20107;-73
2021/06/18 00:35:38;;;;;;;10.70;9.70;;;20.50;99.90;;;;;;5053684;28;20072;-72
2021/06/18 00:38:07;;;;;;;11.43;10.38;;;20.50;99.90;;;;;;5054031;28;20049;-72
2021/06/18 00:40:34;;;;;;;11.02;10.10;;;20.50;99.90;;;;;;5054543;28;20044;-72
2021/06/18 00:43:02;;;;;;;11.50;10.50;;;20.50;99.90;;;;;;5054290;28;20064;-72
2021/06/18 00:45:28;;;;;;;10.60;9.77;;;20.60;99.90;;;;;;5054172;28;20041;-73
2021/06/18 00:47:58;;;;;;;10.98;9.77;;;20.50;99.90;;;;;;5054129;28;20077;-73
2021/06/18 00:50:26;;;;;;;12.55;10.68;;;20.50;99.90;;;;;;5054554;28;20049;-73
2021/06/18 00:52:53;;;;;;;11.18;10.20;;;20.50;99.90;;;;;;5054359;28;20389;-73
2021/06/18 00:55:20;;;;;;;12.40;10.95;;;20.40;99.90;;;;;;5054136;28;20118;-73
2021/06/18 00:57:46;;;;;;;11.25;10.15;;;20.30;99.90;;;;;;5053863;28;20481;-73
2021/06/18 01:00:15;;;;;;;12.77;11.60;;;20.10;99.90;;;;;;5054058;28;20076;-73
2021/06/18 01:02:42;;;;;;;11.13;10.13;;;20.10;99.90;;;;;;5053895;28;20659;-72
2021/06/18 01:05:11;;;;;;;11.43;10.32;;;20.10;99.90;;;;;;5053936;28;20037;-73
2021/06/18 01:07:48;;;;;;;12.90;11.70;;;20.00;99.90;;;;;;5053678;28;20481;-72
2021/06/18 01:10:21;;;;;;;12.43;11.25;;;20.00;99.90;;;;;;5053790;28;20053;-72
2021/06/18 01:12:56;;;;;;;12.57;11.13;;;19.90;99.90;;;;;;5053540;28;20080;-72
2021/06/18 01:15:33;;;;;;;12.25;11.10;;;19.80;99.90;;;;;;5053375;28;20048;-72
2021/06/18 01:18:02;;;;;;;12.27;11.23;;;19.70;99.90;;;;;;5052351;28;20098;-73
2021/06/18 01:20:44;;;;;;;12.80;11.45;;;19.60;99.90;;;;;;5053594;28;20045;-73
2021/06/18 01:23:24;;;;;;;13.30;11.93;;;19.60;99.90;;;;;;5053381;28;20099;-73
2021/06/18 01:25:55;;;;;;;12.75;11.55;;;19.60;99.90;;;;;;5054431;28;20041;-73
2021/06/18 01:28:40;;;;;;;13.43;12.23;;;19.60;99.90;;;;;;5053440;28;20073;-72
2021/06/18 01:31:08;;;;;;;13.02;11.77;;;19.50;99.90;;;;;;5053269;28;20049;-71
2021/06/18 01:33:37;;;;;;;12.63;11.52;;;19.50;99.90;;;;;;5047341;28;20489;-72
2021/06/18 01:36:06;;;;;;;14.50;13.13;;;19.50;99.90;;;;;;5052919;28;20056;-73
2021/06/18 01:38:36;;;;;;;13.55;12.23;;;19.60;99.90;;;;;;5053315;28;20459;-73
2021/06/18 01:41:05;;;;;;;13.90;12.70;;;19.60;99.90;;;;;;5053356;28;20052;-72
2021/06/18 01:43:35;;;;;;;13.70;12.23;;;19.50;99.90;;;;;;5053446;28;20049;-73
2021/06/18 01:46:02;;;;;;;13.02;11.70;;;19.50;99.90;;;;;;5052929;28;20072;-73
2021/06/18 01:48:30;;;;;;;13.10;11.75;;;19.50;99.90;;;;;;5053330;28;20443;-73
2021/06/18 01:50:58;;;;;;;12.88;11.73;;;19.50;99.90;;;;;;5052626;28;20080;-72
2021/06/18 01:53:26;;;;;;;12.20;11.02;;;19.50;99.90;;;;;;5053282;28;20091;-72
2021/06/18 01:55:55;;;;;;;12.73;11.35;;;19.40;99.90;;;;;;5052777;28;20076;-72
2021/06/18 01:58:23;;;;;;;12.77;11.55;;;19.40;99.90;;;;;;5052823;28;20500;-73
2021/06/18 02:00:52;;;;;;;13.00;11.90;;;19.30;99.90;;;;;;5052565;28;20095;-72
2021/06/18 02:03:23;;;;;;;13.48;12.23;;;19.40;99.90;;;;;;5053214;28;20079;-72
2021/06/18 02:05:51;;;;;;;13.18;11.98;;;19.40;99.90;;;;;;5052784;28;20672;-73
2021/06/18 02:08:20;;;;;;;13.38;11.93;;;19.50;99.90;;;;;;5052771;28;20147;-73
2021/06/18 02:10:48;;;;;;;12.27;11.13;;;19.50;99.90;;;;;;5052681;28;20090;-73
2021/06/18 02:13:16;;;;;;;13.25;11.95;;;19.60;99.90;;;;;;5052512;28;20083;-73
2021/06/18 02:15:44;;;;;;;12.63;11.40;;;19.60;99.90;;;;;;5052023;28;20072;-72
2021/06/18 02:18:15;;;;;;;13.48;12.18;;;19.50;99.90;;;;;;5052766;28;20499;-72
2021/06/18 02:20:43;;;;;;;14.95;13.13;;;19.50;99.90;;;;;;5052267;28;20072;-72
2021/06/18 02:23:10;;;;;;;13.77;12.55;;;19.40;99.90;;;;;;5052838;28;20114;-72
2021/06/18 02:25:38;;;;;;;13.52;12.23;;;19.30;99.90;;;;;;5052054;28;20085;-71
2021/06/18 02:28:06;;;;;;;13.23;11.93;;;19.30;99.90;;;;;;5050720;28;20068;-72
2021/06/18 02:30:33;;;;;;;13.35;12.15;;;19.30;99.90;;;;;;5052106;28;20045;-72
2021/06/18 02:33:02;;;;;;;13.52;12.23;;;19.30;99.90;;;;;;5052380;28;20087;-72
2021/06/18 02:35:30;;;;;;;14.68;13.18;;;19.30;99.90;;;;;;5051775;28;20072;-72
2021/06/18 02:37:56;;;;;;;13.27;11.88;;;19.20;99.90;;;;;;5052043;28;20502;-72
2021/06/18 02:40:23;;;;;;;13.93;12.52;;;19.20;99.90;;;;;;5052205;28;20096;-72
2021/06/18 02:42:50;;;;;;;14.18;12.88;;;19.20;99.90;;;;;;5052253;28;20520;-73
2021/06/18 02:45:16;;;;;;;12.77;11.48;;;19.20;99.90;;;;;;5052422;28;20045;-73
2021/06/18 02:47:50;;;;;;;14.52;13.02;;;19.30;99.90;;;;;;5051842;28;20041;-73
2021/06/18 02:50:25;;;;;;;14.52;13.02;;;19.20;99.90;;;;;;5038840;28;20044;-73
2021/06/18 02:52:57;;;;;;;13.38;12.15;;;19.30;99.90;;;;;;5052050;28;20554;-72
2021/06/18 02:55:30;;;;;;;15.60;14.13;;;19.20;99.90;;;;;;5052031;28;20076;-73
2021/06/18 02:58:01;;;;;;;14.32;12.88;;;19.20;99.90;;;;;;5037799;28;20151;-72
2021/06/18 03:00:29;;;;;;;14.13;12.73;;;19.20;99.90;;;;;;5051959;28;20080;-72
2021/06/18 03:02:58;;;;;;;14.18;12.88;;;19.10;99.90;;;;;;5052190;28;20299;-72
2021/06/18 03:05:26;;;;;;;14.18;12.68;;;19.00;99.90;;;;;;5051750;28;20140;-73
2021/06/18 03:07:57;;;;;;;14.13;12.73;;;19.10;99.90;;;;;;5051775;28;20072;-72
2021/06/18 03:10:26;;;;;;;14.27;12.77;;;19.30;99.90;;;;;;5052015;28;20048;-73
2021/06/18 03:13:00;;;;;;;13.68;12.48;;;19.30;99.90;;;;;;5052155;28;20049;-73
2021/06/18 03:15:31;;;;;;;12.52;11.25;;;19.30;99.90;;;;;;5036827;28;20485;-72
2021/06/18 03:18:00;;;;;;;14.80;13.30;;;19.30;99.90;;;;;;5051785;28;20452;-72
2021/06/18 03:20:27;;;;;;;12.32;11.15;;;19.30;99.90;;;;;;5051762;28;20045;-73
2021/06/18 03:22:58;;;;;;;16.80;14.75;;;19.40;99.90;;;;;;5051596;28;20083;-72
2021/06/18 03:25:25;;;;;;;24.00;19.67;;;19.50;99.90;;;;;;5051463;28;20076;-72
2021/06/18 03:27:54;;;;;;;14.15;12.70;;;19.50;99.90;;;;;;5051854;28;20488;-72
2021/06/18 03:30:21;;;;;;;14.35;11.20;;;19.70;99.90;;;;;;5051391;28;20098;-72
2021/06/18 03:32:49;;;;;;;14.13;12.60;;;19.90;99.90;;;;;;5051651;28;20071;-71
2021/06/18 03:35:16;;;;;;;15.75;12.43;;;20.10;99.90;;;;;;5051813;28;20053;-79
2021/06/18 03:37:44;;;;;;;17.13;14.68;;;20.20;99.90;;;;;;5050379;28;20081;-69
2021/06/18 03:40:13;;;;;;;13.77;12.38;;;20.30;99.90;;;;;;5053982;28;20080;-74
2021/06/18 03:42:40;;;;;;;13.35;12.05;;;20.50;99.90;;;;;;5054505;28;20450;-71
2021/06/18 03:45:09;;;;;;;26.55;17.70;;;20.50;99.90;;;;;;5054845;28;20087;-70
2021/06/18 03:47:37;;;;;;;14.18;12.70;;;20.70;99.90;;;;;;5055152;28;20103;-70
2021/06/18 03:50:05;;;;;;;14.35;13.05;;;20.80;99.90;;;;;;5055387;28;20084;-70
2021/06/18 03:52:32;;;;;;;13.38;12.18;;;20.80;99.90;;;;;;5054524;28;20080;-70
2021/06/18 03:55:00;;;;;;;14.18;12.77;;;21.00;99.90;;;;;;5054948;28;20077;-69
2021/06/18 03:57:28;;;;;;;11.98;10.98;;;21.00;99.90;;;;;;5054563;28;20496;-68
2021/06/18 03:59:56;;;;;;;12.05;10.85;;;21.20;99.90;;;;;;5055388;28;20518;-68
2021/06/18 04:02:24;;;;;;;12.07;11.15;;;21.30;99.90;;;;;;5055319;28;20069;-73
2021/06/18 04:04:53;;;;;;;12.07;10.93;;;21.40;99.90;;;;;;5003767;28;20115;-74
2021/06/18 04:07:20;;;;;;;11.98;10.68;;;21.60;99.90;;;;;;5053607;28;20057;-71
2021/06/18 04:09:47;;;;;;;12.95;11.70;;;21.60;99.90;;;;;;5055181;28;20045;-71
2021/06/18 04:12:16;;;;;;;11.38;10.38;;;21.60;99.90;;;;;;5055178;28;20102;-70
2021/06/18 04:14:44;;;;;;;11.75;10.65;;;21.70;99.90;;;;;;5055152;28;20120;-69
2021/06/18 04:17:11;;;;;;;11.57;10.57;;;21.70;99.90;;;;;;5054910;28;20552;-75
2021/06/18 04:19:40;;;;;;;12.63;11.43;;;21.90;99.90;;;;;;5055023;28;20053;-73
2021/06/18 04:22:07;;;;;;;13.93;12.52;;;21.90;99.90;;;;;;5055006;28;20072;-73
2021/06/18 04:24:34;;;;;;;11.95;10.75;;;22.00;99.90;;;;;;5054774;28;20102;-75
2021/06/18 04:27:05;;;;;;;12.55;11.25;;;22.10;99.90;;;;;;5055592;28;20095;-75
2021/06/18 04:29:31;;;;;;;12.63;11.38;;;22.10;99.90;;;;;;5056834;28;20115;-69
2021/06/18 04:31:59;;;;;;;12.32;11.35;;;22.20;99.90;;;;;;5056014;28;20461;-73
2021/06/18 04:34:26;;;;;;;12.95;11.65;;;22.20;99.90;;;;;;5054828;28;20084;-71
2021/06/18 04:36:53;;;;;;;12.80;11.52;;;22.30;99.90;;;;;;5054073;28;20099;-74
2021/06/18 04:39:19;;;;;;;12.65;11.55;;;22.40;99.90;;;;;;5054489;28;20477;-73
2021/06/18 04:41:46;;;;;;;11.32;10.35;;;22.40;99.90;;;;;;5055491;28;20041;-71
2021/06/18 04:44:13;;;;;;;11.68;10.68;;;22.50;99.90;;;;;;5054337;28;20496;-71
2021/06/18 04:46:39;;;;;;;12.13;11.02;;;22.50;99.90;;;;;;5054103;28;20045;-72
2021/06/18 04:49:07;;;;;;;12.00;10.85;;;22.60;99.90;;;;;;5053937;28;20044;-70
2021/06/18 04:51:34;;;;;;;11.23;9.93;;;22.70;99.90;;;;;;4990132;28;20531;-72
2021/06/18 04:54:01;;;;;;;11.40;10.50;;;22.70;99.90;;;;;;5049459;28;20542;-70
2021/06/18 04:56:28;;;;;;;12.02;11.00;;;22.80;99.90;;;;;;5054287;28;20091;-70
2021/06/18 04:58:57;;;;;;;12.10;11.00;;;22.70;99.90;;;;;;5054281;28;20103;-70
2021/06/18 05:01:24;;;;;;;12.68;11.10;;;22.80;99.90;;;;;;5054269;28;20099;-69
2021/06/18 05:03:50;;;;;;;11.88;10.85;;;22.90;99.90;;;;;;5053900;28;20138;-72
2021/06/18 05:06:19;;;;;;;11.60;10.60;;;23.00;99.90;;;;;;5053687;28;20139;-73
2021/06/18 05:08:45;;;;;;;11.95;10.85;;;23.10;99.90;;;;;;5012000;28;20041;-70
2021/06/18 05:11:12;;;;;;;13.05;11.77;;;23.10;99.90;;;;;;5064718;28;20044;-69
2021/06/18 05:13:39;;;;;;;11.48;10.48;;;23.20;99.90;;;;;;5054165;28;20086;-71
2021/06/18 05:16:05;;;;;;;12.73;11.63;;;23.30;99.90;;;;;;5055351;28;20496;-72
2021/06/18 05:18:32;;;;;;;12.23;11.23;;;23.30;99.90;;;;;;5053311;28;20107;-72
2021/06/18 05:20:58;;;;;;;12.00;10.85;;;23.40;99.90;;;;;;5071517;28;20040;-71
2021/06/18 05:23:26;;;;;;;12.05;10.95;;;23.50;99.90;;;;;;5054392;28;20081;-73
2021/06/18 05:25:53;;;;;;;11.85;10.82;;;23.60;99.90;;;;;;5055012;28;20049;-71
2021/06/18 05:28:20;;;;;;;12.00;10.98;;;23.70;99.90;;;;;;5053610;28;20077;-70
2021/06/18 05:30:46;;;;;;;12.43;11.23;;;23.80;99.90;;;;;;5053378;28;20094;-70
2021/06/18 05:33:13;;;;;;;11.30;10.30;;;23.90;99.90;;;;;;5053647;28;20084;-70
2021/06/18 05:35:42;;;;;;;12.75;10.30;;;24.00;99.90;;;;;;5053266;28;20111;-70
2021/06/18 05:38:09;;;;;;;10.55;9.60;;;24.10;99.90;;;;;;5053480;28;20107;-71
2021/06/18 05:40:41;;;;;;;10.55;9.65;;;24.20;99.60;;;;;;5053548;28;20045;-69
2021/06/18 05:43:07;;;;;;;12.60;9.25;;;24.30;99.40;;;;;;5053979;28;20049;-69
2021/06/18 05:45:35;;;;;;;11.25;10.27;;;24.40;98.90;;;;;;4998842;28;20076;-73
2021/06/18 05:48:02;;;;;;;10.95;10.05;;;24.60;98.70;;;;;;5056975;28;20052;-73
2021/06/18 05:50:29;;;;;;;9.95;9.00;;;24.70;98.20;;;;;;5053439;28;20048;-72
2021/06/18 05:52:55;;;;;;;10.85;9.18;;;24.80;97.50;;;;;;5053504;28;20103;-72
2021/06/18 05:55:22;;;;;;;10.40;9.30;;;25.00;96.40;;;;;;5057426;28;20126;-72
2021/06/18 05:57:51;;;;;;;9.32;8.55;;;25.10;95.40;;;;;;5053198;28;20084;-72
2021/06/18 06:00:19;;;;;;;10.57;8.63;;;25.20;94.80;;;;;;5055336;28;20080;-72
2021/06/18 06:02:45;;;;;;;10.07;9.15;;;25.40;94.40;;;;;;5052907;28;20044;-71
2021/06/18 06:05:13;;;;;;;9.73;8.73;;;25.50;93.60;;;;;;5052781;28;20151;-72
2021/06/18 06:07:45;;;;;;;9.80;8.82;;;25.60;92.90;;;;;;5052743;28;20045;-71
2021/06/18 06:10:12;;;;;;;9.45;8.48;;;25.70;92.30;;;;;;5052661;28;20507;-72
2021/06/18 06:12:39;;;;;;;9.25;8.25;;;25.90;92.10;;;;;;5053570;28;20097;-72
2021/06/18 06:15:08;;;;;;;8.95;8.25;;;26.10;91.50;;;;;;5053339;28;20130;-71
2021/06/18 06:17:34;;;;;;;9.27;8.55;;;26.50;90.90;;;;;;5052651;28;20103;-72
2021/06/18 06:20:01;;;;;;;8.77;7.97;;;26.70;89.40;;;;;;5042543;28;20077;-72
2021/06/18 06:22:27;;;;;;;9.70;7.95;;;26.70;88.40;;;;;;5058517;28;20049;-71
2021/06/18 06:24:54;;;;;;;8.43;7.60;;;26.90;87.30;;;;;;5052528;28;20134;-71
2021/06/18 06:27:20;;;;;;;8.30;7.70;;;27.30;85.50;;;;;;5052188;28;20087;-69
2021/06/18 06:29:47;;;;;;;7.57;6.88;;;27.70;83.60;;;;;;5052206;28;20095;-74
2021/06/18 06:32:15;;;;;;;7.85;7.15;;;27.80;82.00;;;;;;5053080;28;20045;-68
2021/06/18 06:34:41;;;;;;;7.90;7.05;;;27.80;79.50;;;;;;5052623;28;20076;-70
2021/06/18 06:37:08;;;;;;;7.55;6.85;;;28.10;79.90;;;;;;5051903;28;20045;-69
2021/06/18 06:39:34;;;;;;;8.32;7.45;;;28.30;76.70;;;;;;5052488;28;20080;-72
2021/06/18 06:42:01;;;;;;;7.22;6.72;;;28.20;75.20;;;;;;5052121;28;20080;-69
2021/06/18 06:44:28;;;;;;;6.95;6.45;;;28.10;75.50;;;;;;5051932;28;20049;-72
2021/06/18 06:46:54;;;;;;;6.97;6.28;;;28.20;73.10;;;;;;5051486;28;20476;-70
2021/06/18 06:49:24;;;;;;;7.60;6.82;;;28.30;72.90;;;;;;5051850;28;20405;-71
2021/06/18 06:51:51;;;;;;;7.20;6.53;;;28.60;71.90;;;;;;5051743;28;20079;-68
2021/06/18 06:54:18;;;;;;;7.20;6.60;;;28.30;70.20;;;;;;5051894;28;20084;-70
2021/06/18 06:56:44;;;;;;;6.72;6.07;;;28.30;70.70;;;;;;5052050;28;20045;-70
2021/06/18 06:59:11;;;;;;;7.25;6.65;;;28.40;70.00;;;;;;5052258;28;20045;-70
2021/06/18 07:01:38;;;;;;;7.18;6.47;;;28.40;70.30;;;;;;5052185;28;20099;-71
2021/06/18 07:04:04;;;;;;;7.90;7.05;;;28.90;69.50;;;;;;5051940;28;20072;-69
2021/06/18 07:06:33;;;;;;;7.78;7.05;;;29.00;68.10;;;;;;5051724;28;20535;-70
2021/06/18 07:09:00;;;;;;;7.65;7.05;;;29.20;68.80;;;;;;5051789;28;20059;-71
2021/06/18 07:11:26;;;;;;;7.32;6.80;;;29.60;66.40;;;;;;5051791;28;20044;-70
2021/06/18 07:13:53;;;;;;;6.97;6.30;;;29.60;66.30;;;;;;5053574;28;20072;-70
2021/06/18 07:16:19;;;;;;;6.70;6.20;;;29.80;65.40;;;;;;5060072;28;20068;-71
2021/06/18 07:18:46;;;;;;;8.10;7.45;;;30.00;64.00;;;;;;5061785;28;20078;-70
2021/06/18 07:21:12;;;;;;;6.93;6.15;;;30.40;63.20;;;;;;5055195;28;20072;-70
2021/06/18 07:23:40;;;;;;;6.82;6.07;;;30.70;60.90;;;;;;5055899;28;20049;-70
2021/06/18 07:26:07;;;;;;;6.88;5.68;;;30.80;59.90;;;;;;5055076;28;20069;-71
2021/06/18 07:28:33;;;;;;;6.18;5.68;;;30.80;59.90;;;;;;5056081;28;20073;-70
2021/06/18 07:31:00;;;;;;;6.50;5.95;;;30.60;59.30;;;;;;5056133;28;20500;-71
2021/06/18 07:33:27;;;;;;;6.50;6.00;;;30.70;59.00;;;;;;5058857;28;20477;-71
2021/06/18 07:35:53;;;;;;;6.38;5.88;;;30.90;59.00;;;;;;5055618;28;20045;-68
2021/06/18 07:38:20;;;;;;;5.85;5.38;;;30.60;58.80;;;;;;5055547;28;20053;-71
2021/06/18 07:40:48;;;;;;;5.32;4.85;;;30.80;59.00;;;;;;5056295;28;20069;-68
2021/06/18 07:43:14;;;;;;;6.78;5.43;;;30.90;58.10;;;;;;5056510;28;20075;-69
2021/06/18 07:45:41;;;;;;;6.25;5.72;;;31.10;56.90;;;;;;5055278;28;20859;-69
2021/06/18 07:48:09;;;;;;;7.43;5.40;;;31.20;56.80;;;;;;5055166;28;20484;-69
2021/06/18 07:50:37;;;;;;;6.13;5.53;;;31.00;56.40;;;;;;5055303;28;20049;-69
2021/06/18 07:53:04;;;;;;;4.70;4.30;;;31.00;56.30;;;;;;5055156;28;20439;-68
2021/06/18 07:55:31;;;;;;;5.53;4.90;;;31.10;56.00;;;;;;5055482;28;20088;-72
2021/06/18 07:58:00;;;;;;;4.72;4.32;;;31.10;56.70;;;;;;5055460;28;20057;-69
2021/06/18 08:00:26;;;;;;;5.40;4.90;;;31.50;56.40;;;;;;5056672;28;20037;-70
2021/06/18 08:02:53;;;;;;;4.68;4.32;;;31.60;55.20;;;;;;5055893;28;20480;-70
2021/06/18 08:05:20;;;;;;;4.38;4.07;;;31.70;55.00;;;;;;5055803;28;20073;-71
2021/06/18 08:07:48;;;;;;;4.85;4.32;;;31.70;54.90;;;;;;5054761;28;20049;-68
2021/06/18 08:10:17;;;;;;;4.72;4.38;;;31.80;54.20;;;;;;5055452;28;20045;-69
2021/06/18 08:12:45;;;;;;;5.38;4.72;;;31.70;54.50;;;;;;5054183;28;20049;-69
2021/06/18 08:15:13;;;;;;;6.45;4.60;;;31.70;54.20;;;;;;5055039;28;20099;-69
2021/06/18 08:17:40;;;;;;;4.80;4.40;;;31.80;54.00;;;;;;5055370;28;20091;-71
2021/06/18 08:20:08;;;;;;;4.78;4.45;;;31.80;53.10;;;;;;5055154;28;20041;-69
2021/06/18 08:22:35;;;;;;;5.20;4.70;;;32.10;52.80;;;;;;5055127;28;20435;-69
2021/06/18 08:25:02;;;;;;;4.38;3.97;;;32.60;52.40;;;;;;5054509;28;20070;-69
2021/06/18 08:27:29;;;;;;;4.00;3.70;;;32.70;52.00;;;;;;5055142;28;20167;-70
2021/06/18 08:29:56;;;;;;;3.78;3.50;;;32.70;51.20;;;;;;5054726;28;20455;-70
2021/06/18 08:32:24;;;;;;;4.43;4.13;;;32.70;50.70;;;;;;5054613;28;20075;-68
2021/06/18 08:34:50;;;;;;;5.20;4.40;;;32.90;50.80;;;;;;5054230;28;20048;-70
2021/06/18 08:37:17;;;;;;;6.13;3.85;;;32.80;50.40;;;;;;5054586;28;20079;-70
2021/06/18 08:39:45;;;;;;;4.35;3.95;;;33.00;50.60;;;;;;5054240;28;20045;-70
2021/06/18 08:42:11;;;;;;;3.95;3.53;;;33.50;50.10;;;;;;5054593;28;20421;-69
2021/06/18 08:44:39;;;;;;;4.18;3.22;;;33.30;48.70;;;;;;5054040;28;20068;-69
2021/06/18 08:47:06;;;;;;;3.47;3.17;;;33.20;48.40;;;;;;5054188;28;20065;-70
2021/06/18 08:49:35;;;;;;;5.20;3.53;;;32.80;48.20;;;;;;5054823;28;20044;-71
2021/06/18 08:52:01;;;;;;;5.55;3.60;;;32.70;48.50;;;;;;5055013;28;20040;-72
2021/06/18 08:54:42;;;;;;;3.40;3.20;;;33.10;48.10;;;;;;5055370;28;20107;-72
2021/06/18 08:57:09;;;;;;;3.90;3.15;;;32.90;47.50;;;;;;5054144;28;20045;-70
2021/06/18 08:59:36;;;;;;;3.80;3.50;;;32.80;47.60;;;;;;5054492;28;20570;-70
2021/06/18 09:02:02;;;;;;;7.03;4.60;;;33.10;47.70;;;;;;5034367;28;20115;-70
2021/06/18 09:04:29;;;;;;;4.30;3.83;;;33.20;47.00;;;;;;5049886;28;20091;-70
2021/06/18 09:07:00;;;;;;;3.50;3.20;;;33.20;46.90;;;;;;5054137;28;20130;-73
2021/06/18 09:09:27;;;;;;;3.80;3.42;;;33.80;46.60;;;;;;5054375;28;20095;-70
2021/06/18 09:11:56;;;;;;;5.88;4.20;;;33.70;46.00;;;;;;5054328;28;20053;-71
2021/06/18 09:14:28;;;;;;;3.70;3.40;;;33.60;46.10;;;;;;5054157;28;20045;-70
2021/06/18 09:17:04;;;;;;;4.13;3.83;;;33.80;46.30;;;;;;5053553;28;20071;-69
2021/06/18 09:19:31;;;;;;;5.15;3.92;;;34.30;45.20;;;;;;5054164;28;20118;-68
2021/06/18 09:22:00;;;;;;;3.85;3.55;;;33.60;46.10;;;;;;5053795;28;20338;-68
2021/06/18 09:24:28;;;;;;;3.22;2.92;;;34.00;45.60;;;;;;5053408;28;20095;-68
2021/06/18 09:26:55;;;;;;;4.25;3.88;;;34.00;45.70;;;;;;5052940;28;20045;-69
2021/06/18 09:29:22;;;;;;;3.13;2.85;;;34.50;45.40;;;;;;5053674;28;20076;-70
2021/06/18 09:31:51;;;;;;;3.92;3.45;;;34.50;44.30;;;;;;5053491;28;20037;-70
2021/06/18 09:34:36;;;;;;;4.20;3.63;;;34.50;43.40;;;;;;5053157;28;20049;-71
2021/06/18 09:37:25;;;;;;;3.13;2.92;;;34.20;43.60;;;;;;5052776;28;20045;-71
2021/06/18 09:40:04;;;;;;;4.07;2.97;;;34.60;43.20;;;;;;5053794;28;20052;-72
2021/06/18 09:42:31;;;;;;;3.53;3.22;;;34.60;42.90;;;;;;5053774;28;20096;-72
2021/06/18 09:45:03;;;;;;;3.00;2.80;;;34.60;42.60;;;;;;5053335;28;20500;-71
2021/06/18 09:47:30;;;;;;;5.40;4.45;;;34.90;42.60;;;;;;5053179;28;20076;-71
2021/06/18 09:49:57;;;;;;;3.45;3.15;;;34.80;42.30;;;;;;5053585;28;20439;-71
2021/06/18 09:52:26;;;;;;;3.72;3.20;;;35.20;42.00;;;;;;5053569;28;20076;-70
2021/06/18 09:54:54;;;;;;;4.00;3.22;;;35.20;41.70;;;;;;5053017;28;20481;-71
2021/06/18 09:57:23;;;;;;;9.50;3.72;;;35.30;41.10;;;;;;5052603;28;20128;-70
2021/06/18 09:59:52;;;;;;;6.93;3.55;;;35.20;41.70;;;;;;5053057;28;20117;-72
2021/06/18 10:02:21;;;;;;;4.88;3.53;;;35.60;41.20;;;;;;5052277;28;20077;-71
2021/06/18 10:04:51;;;;;;;4.10;3.80;;;35.70;40.80;;;;;;5057114;28;20110;-71
2021/06/18 10:07:20;;;;;;;3.53;3.33;;;35.70;40.90;;;;;;5052929;28;20141;-71
2021/06/18 10:09:49;;;;;;;3.88;3.47;;;35.10;41.00;;;;;;5052723;28;20480;-71
2021/06/18 10:12:16;;;;;;;4.22;3.92;;;35.20;41.30;;;;;;5052910;28;20397;-71
2021/06/18 10:14:43;;;;;;;5.68;3.53;;;35.50;41.90;;;;;;5052835;28;20075;-71
2021/06/18 10:17:09;;;;;;;3.83;3.55;;;35.30;41.20;;;;;;5052521;28;20081;-71
2021/06/18 10:19:36;;;;;;;4.38;3.97;;;35.50;41.50;;;;;;5053322;28;20091;-71
2021/06/18 10:22:09;;;;;;;3.95;3.45;;;35.50;41.60;;;;;;5052944;28;20049;-72
2021/06/18 10:24:40;;;;;;;4.07;3.78;;;34.90;42.10;;;;;;5052461;28;20045;-71
2021/06/18 10:27:10;;;;;;;5.60;3.67;;;35.10;42.30;;;;;;5052374;28;20049;-71
2021/06/18 10:29:39;;;;;;;3.80;3.50;;;34.60;42.40;;;;;;5052730;28;20524;-71
2021/06/18 10:32:34;;;;;;;6.45;3.80;;;35.10;42.40;;;;;;5053033;28;20299;-71
2021/06/18 10:35:02;;;;;;;4.57;3.28;;;34.90;40.70;;;;;;5052831;28;20053;-71
2021/06/18 10:37:32;;;;;;;7.10;4.03;;;35.20;40.90;;;;;;5052514;28;20095;-71
2021/06/18 10:40:06;;;;;;;4.07;3.70;;;35.00;41.60;;;;;;5052794;28;20131;-71
2021/06/18 10:42:34;;;;;;;5.97;5.47;;;35.20;41.50;;;;;;5053138;28;20073;-71
2021/06/18 10:45:01;;;;;;;4.22;3.92;;;35.20;41.80;;;;;;5052566;28;20190;-70
2021/06/18 10:48:00;;;;;;;4.50;4.10;;;35.60;41.80;;;;;;5052079;28;20103;-71
2021/06/18 10:50:46;;;;;;;3.85;3.60;;;35.60;41.30;;;;;;5049676;28;20053;-71
2021/06/18 10:53:23;;;;;;;4.15;3.88;;;36.10;41.00;;;;;;5052474;28;20123;-71
2021/06/18 10:55:53;;;;;;;4.47;4.07;;;36.20;40.70;;;;;;5052081;28;20424;-71
2021/06/18 10:58:21;;;;;;;4.05;3.63;;;35.40;41.50;;;;;;5051993;28;20394;-71
2021/06/18 11:00:48;;;;;;;4.07;3.53;;;35.40;41.20;;;;;;5052222;28;20049;-71
2021/06/18 11:03:17;;;;;;;4.95;3.58;;;34.80;39.90;;;;;;5052488;28;20118;-71
2021/06/18 11:05:46;;;;;;;4.00;3.55;;;34.70;41.00;;;;;;5051982;28;20711;-71
2021/06/18 11:08:26;;;;;;;4.07;3.78;;;34.80;41.10;;;;;;5052153;28;20079;-71
2021/06/18 11:10:57;;;;;;;4.85;4.45;;;35.30;41.10;;;;;;5052176;28;20516;-72
2021/06/18 11:13:26;;;;;;;4.88;4.47;;;35.70;40.20;;;;;;5052417;28;20103;-71
2021/06/18 11:15:52;;;;;;;2.90;2.60;;;36.00;40.10;;;;;;5051983;28;20056;-71
2021/06/18 11:18:31;;;;;;;3.13;2.95;;;35.60;38.60;;;;;;5052184;28;20041;-72
2021/06/18 11:21:03;;;;;;;3.53;3.33;;;35.30;38.70;;;;;;5051911;28;20060;-70
2021/06/18 11:23:34;;;;;;;3.83;3.20;;;35.70;37.70;;;;;;5052094;28;20053;-70
2021/06/18 11:26:03;;;;;;;3.95;3.45;;;35.60;37.90;;;;;;5052200;28;20049;-71
2021/06/18 11:28:43;;;;;;;7.68;3.85;;;35.50;38.20;;;;;;5052219;28;20083;-72
2021/06/18 11:31:13;;;;;;;3.28;3.00;;;35.60;38.50;;;;;;5052411;28;20103;-71
2021/06/18 11:34:07;;;;;;;4.82;3.05;;;35.70;36.90;;;;;;5051972;28;20424;-71
2021/06/18 11:36:43;;;;;;;3.15;2.92;;;35.40;36.50;;;;;;5051758;28;20107;-71
2021/06/18 11:39:18;;;;;;;6.57;3.65;;;35.80;37.10;;;;;;5052069;28;20049;-72
2021/06/18 11:41:49;;;;;;;3.47;3.22;;;36.30;36.50;;;;;;5032239;28;20095;-71
2021/06/18 11:44:22;;;;;;;2.85;2.65;;;36.10;35.70;;;;;;5032730;28;20084;-72
2021/06/18 11:46:53;;;;;;;3.10;2.88;;;35.40;36.10;;;;;;5032243;28;20444;-71
2021/06/18 11:49:22;;;;;;;3.50;3.05;;;35.20;36.00;;;;;;5032646;28;20053;-71
2021/06/18 11:51:50;;;;;;;4.38;3.38;;;35.40;36.30;;;;;;5032255;28;20054;-71
2021/06/18 11:54:31;;;;;;;4.20;3.80;;;35.60;37.90;;;;;;5035773;28;20037;-71
2021/06/18 11:57:11;;;;;;;3.47;3.08;;;35.40;37.80;;;;;;5051635;28;20049;-71
2021/06/18 11:59:41;;;;;;;4.15;3.83;;;36.00;37.10;;;;;;5054376;28;20041;-71
2021/06/18 12:02:18;;;;;;;4.25;3.85;;;36.10;37.50;;;;;;5057379;28;20148;-70
2021/06/18 12:04:45;;;;;;;3.55;3.35;;;36.80;36.70;;;;;;5055611;28;20049;-71
2021/06/18 12:07:12;;;;;;;4.05;3.55;;;36.70;36.80;;;;;;5055171;28;20057;-71
2021/06/18 12:09:40;;;;;;;5.43;3.88;;;36.60;37.00;;;;;;5055212;28;20041;-71
2021/06/18 12:12:09;;;;;;;4.60;3.33;;;36.70;36.80;;;;;;5055454;28;20106;-71
2021/06/18 12:14:37;;;;;;;6.18;4.07;;;36.60;36.90;;;;;;5055390;28;20045;-71
2021/06/18 12:17:05;;;;;;;4.43;3.20;;;36.50;37.00;;;;;;5054935;28;20099;-71
2021/06/18 12:19:33;;;;;;;3.88;3.67;;;37.20;36.70;;;;;;5055193;28;20493;-71
2021/06/18 12:22:03;;;;;;;4.28;3.80;;;37.40;35.90;;;;;;5054943;28;20148;-71
2021/06/18 12:24:33;;;;;;;4.00;3.70;;;37.30;36.70;;;;;;5055322;28;20045;-71
2021/06/18 12:27:02;;;;;;;3.95;3.55;;;37.30;36.70;;;;;;5054594;28;20135;-71
2021/06/18 12:29:29;;;;;;;3.92;3.58;;;37.00;37.00;;;;;;5055218;28;20045;-71
2021/06/18 12:31:56;;;;;;;4.05;3.75;;;36.60;38.00;;;;;;5055335;28;20045;-71
2021/06/18 12:34:25;;;;;;;3.30;3.00;;;37.10;36.60;;;;;;5055163;28;20044;-70
2021/06/18 12:37:04;;;;;;;4.00;2.75;;;37.10;36.00;;;;;;5054538;28;20056;-71
2021/06/18 12:39:30;;;;;;;3.70;3.40;;;37.20;35.90;;;;;;5054551;28;20103;-72
2021/06/18 12:41:57;;;;;;;3.45;3.15;;;37.60;35.60;;;;;;5054659;28;20485;-71
2021/06/18 12:44:32;;;;;;;3.95;3.50;;;37.80;35.30;;;;;;5055051;28;20087;-70
2021/06/18 12:47:01;;;;;;;4.53;3.88;;;37.30;36.00;;;;;;5053567;28;20102;-71